Main page
METAR-TAF:

METAR-TAF

Airports :

Santa Maria Airport

Aracaju, Sergipe, Brazil

latitude: 10-59S, longitude: 037-04W, elevation: 8 m

Current weather observation

The report was made 56 minutes ago, at 01:00 UTC
Wind 13 kt from the East
Temperature 26°C
Humidity 79%
Pressure 1015 hPa
Visibility 10 km or more
Scattered clouds at a height of 2000 ft

METAR: SBAR 180100Z 08013KT 9999 SCT020 26/22 Q1015

Time: 22:56 (01:56 UTC)

Forecast

The report was made 3 hours and 56 minutes ago, at 22:00 UTC
Forecast valid from 18 at 00 UTC to 18 at 12 UTC
Wind 9 kt from the East
Visibility: 9000 m
Scattered clouds at a height of 1700 ft
Probability 30%
from 18 at 09 UTC to 18 at 10 UTC
Broken clouds at a height of 1200 ft

TAF: SBAR 172200Z 1800/1812 09009KT 9000 SCT017 TN25/1805Z TX27/1811Z PROB30 1809/1810 BKN012 RMK PEU

Weather observations and forecasts of more than 4000 airports (METAR and TAF reports).

The available stations are represented by yellow and red dots on the map.

Hover mouse over dot to see the name of the station.

Then click to see weather observations and forecasts.

To change the map : click on the green buttons with a black cross to zoom in, on the green button with a dash to zoom out, or on the green arrows for adjacent maps.


METAR-TAF: